Time;durP1;ratioP1;P1;durP2;ratioP2;P2;SDS_P1;SDS_P2;PMS_P1;PMS_P2;Temp;Humidity;BMP_temperature;BMP_pressure;BME280_temperature;BME280_humidity;BME280_pressure;Samples;Min_cycle;Max_cycle;Signal;HPM_P1;HPM_P2
2022/04/10 00:00:40;;;;;;;11.50;2.00;;;4.10;99.90;;;;;;5084440;28;20089;-70
2022/04/10 00:03:07;;;;;;;8.85;1.90;;;4.20;99.90;;;;;;5083728;28;20040;-70
2022/04/10 00:05:32;;;;;;;13.52;2.65;;;4.20;99.90;;;;;;5087749;28;20514;-69
2022/04/10 00:07:58;;;;;;;13.48;2.03;;;4.20;99.90;;;;;;5084855;28;20043;-69
2022/04/10 00:10:24;;;;;;;9.35;1.77;;;4.30;99.90;;;;;;5082389;28;20043;-69
2022/04/10 00:12:49;;;;;;;10.13;2.00;;;4.30;99.90;;;;;;5088019;28;20055;-69
2022/04/10 00:15:15;;;;;;;9.55;1.80;;;4.30;99.90;;;;;;5086109;28;20043;-69
2022/04/10 00:17:41;;;;;;;11.07;2.00;;;4.30;99.90;;;;;;5085548;28;20794;-69
2022/04/10 00:20:09;;;;;;;14.38;2.00;;;4.30;99.90;;;;;;5083852;28;20037;-69
2022/04/10 00:22:46;;;;;;;11.27;2.05;;;4.30;99.90;;;;;;5083813;28;20474;-69
2022/04/10 00:25:15;;;;;;;13.90;2.17;;;4.40;99.90;;;;;;5085655;28;20049;-69
2022/04/10 00:27:41;;;;;;;14.70;2.70;;;4.40;99.90;;;;;;5083546;28;20537;-69
2022/04/10 00:30:07;;;;;;;9.98;2.00;;;4.40;99.90;;;;;;5083982;28;20043;-69
2022/04/10 00:32:33;;;;;;;11.07;1.92;;;4.40;99.90;;;;;;5084296;28;20135;-69
2022/04/10 00:34:59;;;;;;;12.07;2.10;;;4.40;99.90;;;;;;5087312;28;20111;-69
2022/04/10 00:37:25;;;;;;;11.82;2.22;;;4.40;99.90;;;;;;5086164;28;20043;-69
2022/04/10 00:39:51;;;;;;;10.75;1.92;;;4.50;99.90;;;;;;5087026;28;20414;-69
2022/04/10 00:42:16;;;;;;;10.82;2.60;;;4.40;99.90;;;;;;5084332;28;20060;-69
2022/04/10 00:44:42;;;;;;;10.23;2.10;;;4.40;99.90;;;;;;5088510;28;20036;-69
2022/04/10 00:47:10;;;;;;;12.15;2.15;;;4.40;99.90;;;;;;5087292;28;20039;-69
2022/04/10 00:49:36;;;;;;;12.75;2.72;;;4.40;99.90;;;;;;5083876;28;20048;-68
2022/04/10 00:52:04;;;;;;;12.18;2.13;;;4.40;99.90;;;;;;5084169;28;20044;-68
2022/04/10 00:54:30;;;;;;;10.88;2.28;;;4.40;99.90;;;;;;5084351;28;20048;-68
2022/04/10 00:56:57;;;;;;;11.48;1.92;;;4.40;99.90;;;;;;5080588;28;20078;-69
2022/04/10 00:59:23;;;;;;;8.32;2.17;;;4.30;99.90;;;;;;5082173;28;20475;-68
2022/04/10 01:01:48;;;;;;;13.18;2.50;;;4.40;99.90;;;;;;5083217;28;20117;-68
2022/04/10 01:04:14;;;;;;;12.95;2.25;;;4.40;99.90;;;;;;5087044;28;20044;-68
2022/04/10 01:06:41;;;;;;;9.80;2.08;;;4.40;99.90;;;;;;5086416;28;20159;-68
2022/04/10 01:09:07;;;;;;;12.85;2.58;;;4.30;99.90;;;;;;5086599;28;20155;-69
2022/04/10 01:11:33;;;;;;;10.45;1.95;;;4.40;99.90;;;;;;5083871;28;20080;-68
2022/04/10 01:14:00;;;;;;;11.55;2.40;;;4.30;99.90;;;;;;5086884;28;20040;-69
2022/04/10 01:16:26;;;;;;;12.85;2.42;;;4.40;99.90;;;;;;5083996;28;20426;-68
2022/04/10 01:18:52;;;;;;;16.40;2.40;;;4.30;99.90;;;;;;5082107;28;20044;-69
2022/04/10 01:21:25;;;;;;;13.18;2.25;;;4.30;99.90;;;;;;5081811;28;20396;-68
2022/04/10 01:23:55;;;;;;;13.25;2.47;;;4.40;99.90;;;;;;5084135;28;20063;-68
2022/04/10 01:26:23;;;;;;;10.50;2.38;;;4.40;99.90;;;;;;5085565;28;20051;-68
2022/04/10 01:29:07;;;;;;;9.73;1.90;;;4.40;99.90;;;;;;5082377;28;20039;-68
2022/04/10 01:31:35;;;;;;;12.15;2.17;;;4.40;99.90;;;;;;5082754;28;20051;-68
2022/04/10 01:34:05;;;;;;;10.85;1.98;;;4.40;99.90;;;;;;5080108;28;20036;-69
2022/04/10 01:36:31;;;;;;;7.80;2.33;;;4.40;99.90;;;;;;5084373;28;20044;-69
2022/04/10 01:38:58;;;;;;;13.27;2.22;;;4.40;99.90;;;;;;5083718;28;20056;-69
2022/04/10 01:41:26;;;;;;;8.60;2.45;;;4.40;99.90;;;;;;5082326;28;20444;-69
2022/04/10 01:43:52;;;;;;;9.88;2.10;;;4.40;99.90;;;;;;5082130;28;20055;-69
2022/04/10 01:46:19;;;;;;;10.52;2.20;;;4.40;99.90;;;;;;5083519;28;20147;-69
2022/04/10 01:48:45;;;;;;;12.27;2.17;;;4.40;99.90;;;;;;5080229;28;20477;-69
2022/04/10 01:51:11;;;;;;;10.45;1.90;;;4.30;99.90;;;;;;5082569;28;20110;-69
2022/04/10 01:53:37;;;;;;;9.88;2.28;;;4.40;99.90;;;;;;5082952;28;20067;-69
2022/04/10 01:56:03;;;;;;;11.30;2.20;;;4.40;99.90;;;;;;5085979;28;20138;-69
2022/04/10 01:58:30;;;;;;;10.80;2.10;;;4.40;99.90;;;;;;5083304;28;20093;-69
2022/04/10 02:00:56;;;;;;;11.93;1.95;;;4.40;99.90;;;;;;5084983;28;20037;-69
2022/04/10 02:03:22;;;;;;;7.65;1.58;;;4.40;99.90;;;;;;5083197;28;20846;-69
2022/04/10 02:05:47;;;;;;;9.10;1.77;;;4.50;99.90;;;;;;5074214;28;20028;-70
2022/04/10 02:08:13;;;;;;;10.38;2.00;;;4.40;99.90;;;;;;5078177;28;20062;-69
2022/04/10 02:10:39;;;;;;;10.48;2.40;;;4.40;99.90;;;;;;5083869;28;20382;-69
2022/04/10 02:13:07;;;;;;;11.10;1.83;;;4.40;99.90;;;;;;5084679;28;20044;-69
2022/04/10 02:15:38;;;;;;;9.65;1.85;;;4.50;99.90;;;;;;5082679;28;20062;-70
2022/04/10 02:18:04;;;;;;;9.00;1.70;;;4.50;99.90;;;;;;5075643;28;21008;-69
2022/04/10 02:20:30;;;;;;;7.78;1.80;;;4.50;99.90;;;;;;5081955;28;20130;-69
2022/04/10 02:22:55;;;;;;;8.45;2.08;;;4.50;99.90;;;;;;5083981;28;20280;-69
2022/04/10 02:25:21;;;;;;;10.43;2.10;;;4.50;99.90;;;;;;5088938;28;20048;-69
2022/04/10 02:27:46;;;;;;;7.47;1.80;;;4.50;99.90;;;;;;5088789;28;20040;-69
2022/04/10 02:30:12;;;;;;;10.77;1.80;;;4.50;99.90;;;;;;5086576;28;20043;-69
2022/04/10 02:32:41;;;;;;;8.43;2.10;;;4.40;99.90;;;;;;5086660;28;20118;-69
2022/04/10 02:35:08;;;;;;;13.40;3.03;;;4.40;99.90;;;;;;5068753;28;20044;-69
2022/04/10 02:37:34;;;;;;;11.07;2.42;;;4.40;99.90;;;;;;5086194;28;20422;-69
2022/04/10 02:40:00;;;;;;;13.90;2.22;;;4.40;99.90;;;;;;5089098;28;20044;-69
2022/04/10 02:42:27;;;;;;;12.30;2.55;;;4.40;99.90;;;;;;5087786;28;20448;-69
2022/04/10 02:44:53;;;;;;;8.13;2.05;;;4.40;99.90;;;;;;5086949;28;20421;-68
2022/04/10 02:47:19;;;;;;;14.68;2.20;;;4.40;99.90;;;;;;5085001;28;20049;-68
2022/04/10 02:49:45;;;;;;;11.27;2.00;;;4.30;99.90;;;;;;5086384;28;20166;-68
2022/04/10 02:52:11;;;;;;;14.10;2.35;;;4.30;99.90;;;;;;5086067;28;20570;-69
2022/04/10 02:54:36;;;;;;;11.95;2.75;;;4.30;99.90;;;;;;5088078;28;20043;-68
2022/04/10 02:57:02;;;;;;;11.95;2.30;;;4.30;99.90;;;;;;5084910;28;20456;-68
2022/04/10 02:59:27;;;;;;;14.93;2.25;;;4.30;99.90;;;;;;5087776;28;20040;-68
2022/04/10 03:01:53;;;;;;;7.47;1.95;;;4.30;99.90;;;;;;5085304;28;20086;-68
2022/04/10 03:04:18;;;;;;;9.20;1.90;;;4.20;99.90;;;;;;5088995;28;20058;-68
2022/04/10 03:06:44;;;;;;;8.00;1.90;;;4.30;99.90;;;;;;5085124;28;20051;-68
2022/04/10 03:09:10;;;;;;;8.10;2.10;;;4.30;99.90;;;;;;5089294;28;20033;-68
2022/04/10 03:11:35;;;;;;;16.42;2.33;;;4.20;99.90;;;;;;5086488;28;20107;-68
2022/04/10 03:14:02;;;;;;;10.30;1.98;;;4.20;99.90;;;;;;5082350;28;20054;-69
2022/04/10 03:16:27;;;;;;;9.45;2.00;;;4.20;99.90;;;;;;5079451;28;20048;-68
2022/04/10 03:18:53;;;;;;;9.52;1.95;;;4.20;99.90;;;;;;5082819;28;20399;-68
2022/04/10 03:21:19;;;;;;;10.65;2.13;;;4.20;99.90;;;;;;5083476;28;20050;-68
2022/04/10 03:23:44;;;;;;;6.47;1.85;;;4.20;99.90;;;;;;5080738;28;20048;-68
2022/04/10 03:26:10;;;;;;;11.70;1.95;;;4.20;99.90;;;;;;5082484;28;20039;-68
2022/04/10 03:28:35;;;;;;;6.60;1.50;;;4.20;99.90;;;;;;5083035;28;20046;-69
2022/04/10 03:31:01;;;;;;;9.45;1.80;;;4.20;99.90;;;;;;5083480;28;20036;-68
2022/04/10 03:33:27;;;;;;;7.25;1.60;;;4.20;99.90;;;;;;5080781;28;20063;-68
2022/04/10 03:35:53;;;;;;;9.40;1.90;;;4.20;99.90;;;;;;5082676;28;20068;-68
2022/04/10 03:38:19;;;;;;;8.43;1.83;;;4.20;99.90;;;;;;5082180;28;20086;-69
2022/04/10 03:40:45;;;;;;;10.40;1.67;;;4.20;99.90;;;;;;5078003;28;20048;-69
2022/04/10 03:43:11;;;;;;;8.05;1.42;;;4.10;99.90;;;;;;5080566;28;20032;-68
2022/04/10 03:45:38;;;;;;;6.35;1.63;;;4.20;99.90;;;;;;5076375;28;20040;-68
2022/04/10 03:48:05;;;;;;;7.63;1.85;;;4.10;99.90;;;;;;5082762;28;20040;-68
2022/04/10 03:50:32;;;;;;;8.27;1.63;;;4.10;99.90;;;;;;5080241;28;20101;-69
2022/04/10 03:52:58;;;;;;;8.07;1.38;;;4.10;99.90;;;;;;5080788;28;20801;-69
2022/04/10 03:55:24;;;;;;;8.10;1.70;;;4.10;99.90;;;;;;5080611;28;20144;-69
2022/04/10 03:57:49;;;;;;;8.82;1.88;;;4.10;99.90;;;;;;5079865;28;20127;-69
2022/04/10 04:00:15;;;;;;;4.35;1.02;;;4.20;99.90;;;;;;5078814;28;20063;-70
2022/04/10 04:02:42;;;;;;;7.95;1.02;;;4.10;99.90;;;;;;5081347;28;20032;-70
2022/04/10 04:05:08;;;;;;;5.97;1.10;;;4.10;99.90;;;;;;5081506;28;20429;-69
2022/04/10 04:07:33;;;;;;;6.35;1.13;;;4.10;99.90;;;;;;5078627;28;20158;-70
2022/04/10 04:09:59;;;;;;;3.72;1.00;;;4.10;99.90;;;;;;5078987;28;20036;-69
2022/04/10 04:12:24;;;;;;;6.25;1.33;;;4.10;99.90;;;;;;5080132;28;20371;-70
2022/04/10 04:14:50;;;;;;;7.00;1.50;;;4.10;99.90;;;;;;5077708;28;20364;-70
2022/04/10 04:17:15;;;;;;;5.47;1.20;;;4.10;99.90;;;;;;5076862;28;20440;-70
2022/04/10 04:19:41;;;;;;;5.32;1.52;;;4.10;99.90;;;;;;5081025;28;20036;-70
2022/04/10 04:22:06;;;;;;;4.18;1.25;;;4.10;99.90;;;;;;5079501;28;20040;-70
2022/04/10 04:24:33;;;;;;;6.25;1.15;;;4.00;99.90;;;;;;5077141;28;20044;-69
2022/04/10 04:26:58;;;;;;;6.43;1.23;;;4.10;99.90;;;;;;5078670;28;20127;-70
2022/04/10 04:29:24;;;;;;;5.05;1.20;;;4.10;99.90;;;;;;5081017;28;20042;-69
2022/04/10 04:31:50;;;;;;;7.00;1.35;;;4.10;99.90;;;;;;5078057;28;20062;-69
2022/04/10 04:34:15;;;;;;;8.13;1.25;;;4.10;99.90;;;;;;5061342;28;20134;-69
2022/04/10 04:36:41;;;;;;;8.02;1.45;;;4.10;99.90;;;;;;5078563;28;20751;-70
2022/04/10 04:39:06;;;;;;;5.68;1.50;;;4.10;99.90;;;;;;5083577;28;20063;-70
2022/04/10 04:41:32;;;;;;;6.85;2.05;;;4.10;99.90;;;;;;5078373;28;20058;-70
2022/04/10 04:43:57;;;;;;;5.55;1.40;;;4.10;99.90;;;;;;5079758;28;20040;-69
2022/04/10 04:46:23;;;;;;;8.18;1.38;;;4.10;99.90;;;;;;5079015;28;20514;-69
2022/04/10 04:48:48;;;;;;;5.65;1.00;;;4.10;99.90;;;;;;5077189;28;20036;-69
2022/04/10 04:51:15;;;;;;;5.72;1.08;;;4.00;99.90;;;;;;5081764;28;20123;-69
2022/04/10 04:53:40;;;;;;;7.50;1.30;;;4.00;99.90;;;;;;5079335;28;20076;-69
2022/04/10 04:56:06;;;;;;;4.38;1.30;;;4.00;99.90;;;;;;5082941;28;20083;-69
2022/04/10 04:58:32;;;;;;;6.78;1.50;;;3.90;99.90;;;;;;5077411;28;20127;-69
2022/04/10 05:00:57;;;;;;;3.72;1.15;;;4.00;99.90;;;;;;5077535;28;21046;-69
2022/04/10 05:03:23;;;;;;;4.45;1.02;;;4.00;99.90;;;;;;5076371;28;20081;-69
2022/04/10 05:05:48;;;;;;;4.15;1.10;;;4.00;99.90;;;;;;5077529;28;20044;-69
2022/04/10 05:08:14;;;;;;;6.30;1.23;;;4.00;99.90;;;;;;5078671;28;20036;-70
2022/04/10 05:10:39;;;;;;;3.08;0.93;;;4.00;99.90;;;;;;5077181;28;20040;-70
2022/04/10 05:13:08;;;;;;;3.95;0.90;;;4.00;99.90;;;;;;5080195;28;20107;-70
2022/04/10 05:15:34;;;;;;;3.78;1.13;;;4.00;99.90;;;;;;5076006;28;20068;-70
2022/04/10 05:18:00;;;;;;;2.85;0.80;;;4.00;99.90;;;;;;5074569;28;20063;-69
2022/04/10 05:20:25;;;;;;;4.07;0.95;;;4.00;99.90;;;;;;5078459;28;20047;-69
2022/04/10 05:22:51;;;;;;;5.78;1.58;;;4.00;99.90;;;;;;5078938;28;20063;-69
2022/04/10 05:25:17;;;;;;;3.25;0.82;;;4.00;99.90;;;;;;5077968;28;20055;-70
2022/04/10 05:27:42;;;;;;;3.60;0.98;;;4.00;99.90;;;;;;5083237;28;20471;-70
2022/04/10 05:30:09;;;;;;;4.00;1.13;;;4.10;99.90;;;;;;5067212;28;20051;-70
2022/04/10 05:32:34;;;;;;;2.65;0.80;;;4.10;99.90;;;;;;5081687;28;22207;-70
2022/04/10 05:35:00;;;;;;;5.07;1.13;;;4.10;99.90;;;;;;5077652;28;20072;-70
2022/04/10 05:37:26;;;;;;;5.22;1.15;;;4.10;99.90;;;;;;5076107;28;20089;-70
2022/04/10 05:39:51;;;;;;;4.78;1.10;;;4.20;99.90;;;;;;5080279;28;20044;-70
2022/04/10 05:42:17;;;;;;;5.75;0.90;;;4.20;99.90;;;;;;5079103;28;20458;-70
2022/04/10 05:44:42;;;;;;;2.85;1.00;;;4.20;99.90;;;;;;5081378;28;20071;-70
2022/04/10 05:47:08;;;;;;;3.28;0.98;;;4.30;99.90;;;;;;5084569;28;20040;-71
2022/04/10 05:49:33;;;;;;;6.97;1.10;;;4.30;99.90;;;;;;5081262;28;20487;-69
2022/04/10 05:51:59;;;;;;;3.45;1.20;;;4.40;99.90;;;;;;5085791;28;20118;-70
2022/04/10 05:54:24;;;;;;;6.10;1.33;;;4.40;99.90;;;;;;5081696;28;20096;-70
2022/04/10 05:56:50;;;;;;;3.67;1.10;;;4.50;99.90;;;;;;5081592;28;20063;-70
2022/04/10 05:59:15;;;;;;;4.03;1.02;;;4.50;99.90;;;;;;5089704;28;20186;-70
2022/04/10 06:01:41;;;;;;;5.13;1.17;;;4.40;99.90;;;;;;5088715;28;20086;-70
2022/04/10 06:04:07;;;;;;;5.10;1.02;;;4.40;99.90;;;;;;5085755;28;20051;-71
2022/04/10 06:06:32;;;;;;;4.07;1.10;;;4.40;99.90;;;;;;5090793;28;20056;-70
2022/04/10 06:08:58;;;;;;;4.18;1.30;;;4.40;99.90;;;;;;5085155;28;20155;-71
2022/04/10 06:11:23;;;;;;;4.75;1.10;;;4.50;99.90;;;;;;5092330;28;20044;-71
2022/04/10 06:13:49;;;;;;;3.67;1.10;;;4.50;99.90;;;;;;5087615;28;20687;-71
2022/04/10 06:16:14;;;;;;;4.95;1.20;;;4.50;99.90;;;;;;5089007;28;20177;-70
2022/04/10 06:18:40;;;;;;;3.47;0.93;;;4.70;99.90;;;;;;5086857;28;20040;-70
2022/04/10 06:21:06;;;;;;;5.45;0.80;;;4.80;99.90;;;;;;5087550;28;20044;-70
2022/04/10 06:23:31;;;;;;;5.65;1.30;;;5.00;99.90;;;;;;5088355;28;20495;-69
2022/04/10 06:25:57;;;;;;;2.17;1.10;;;5.20;99.90;;;;;;5090610;28;20053;-71
2022/04/10 06:28:22;;;;;;;3.72;1.00;;;5.10;99.90;;;;;;5084585;28;20094;-70
2022/04/10 06:30:48;;;;;;;5.85;0.85;;;5.20;99.90;;;;;;5087926;28;20044;-70
2022/04/10 06:33:14;;;;;;;4.82;1.08;;;5.00;99.90;;;;;;5086585;28;20054;-70
2022/04/10 06:35:40;;;;;;;4.20;1.45;;;5.00;99.90;;;;;;5088971;28;20039;-70
2022/04/10 06:38:06;;;;;;;5.13;1.10;;;5.00;99.90;;;;;;5090428;28;20150;-70
2022/04/10 06:40:31;;;;;;;3.28;1.00;;;5.00;99.90;;;;;;5088247;28;20052;-70
2022/04/10 06:42:57;;;;;;;5.10;0.82;;;5.10;99.90;;;;;;5085425;28;20047;-70
2022/04/10 06:45:22;;;;;;;5.78;0.90;;;5.20;99.90;;;;;;5082263;28;20052;-70
2022/04/10 06:47:48;;;;;;;5.38;0.98;;;5.30;99.90;;;;;;5086345;28;20381;-69
2022/04/10 06:50:14;;;;;;;4.70;1.10;;;5.40;99.90;;;;;;5085901;28;20451;-69
2022/04/10 06:52:39;;;;;;;6.15;1.40;;;5.40;99.90;;;;;;5090839;28;20356;-69
2022/04/10 06:55:05;;;;;;;4.38;1.40;;;5.40;99.90;;;;;;5076894;28;20445;-70
2022/04/10 06:57:31;;;;;;;3.60;0.85;;;5.30;99.90;;;;;;5086281;28;20059;-70
2022/04/10 06:59:56;;;;;;;4.38;1.10;;;5.40;99.90;;;;;;5088053;28;20136;-69
2022/04/10 07:02:22;;;;;;;4.70;1.00;;;5.40;99.90;;;;;;5088616;28;20325;-68
2022/04/10 07:04:48;;;;;;;6.38;1.20;;;5.50;99.90;;;;;;5083280;28;20036;-69
2022/04/10 07:07:13;;;;;;;5.13;1.05;;;5.50;99.90;;;;;;5087150;28;20449;-70
2022/04/10 07:09:39;;;;;;;3.33;1.23;;;5.60;99.90;;;;;;5086735;28;20170;-70
2022/04/10 07:12:04;;;;;;;7.65;1.30;;;5.70;99.90;;;;;;5087850;28;20070;-70
2022/04/10 07:14:30;;;;;;;3.35;1.00;;;5.80;99.90;;;;;;5087636;28;20036;-69
2022/04/10 07:16:56;;;;;;;5.22;1.13;;;5.80;99.90;;;;;;5088233;28;20434;-70
2022/04/10 07:19:21;;;;;;;5.22;1.40;;;5.90;99.90;;;;;;5087162;28;20124;-70
2022/04/10 07:24:31;;;;;;;4.43;1.10;;;6.10;99.90;;;;;;5075014;28;20052;-70
2022/04/10 07:26:57;;;;;;;4.20;1.13;;;6.20;99.90;;;;;;5085973;28;20404;-70
2022/04/10 07:29:22;;;;;;;5.80;1.23;;;6.30;99.90;;;;;;5087960;28;20063;-71
2022/04/10 07:31:48;;;;;;;7.55;1.20;;;6.40;99.90;;;;;;5077976;28;20044;-70
2022/04/10 07:34:13;;;;;;;5.63;1.30;;;6.60;99.90;;;;;;5078719;28;20047;-71
2022/04/10 07:36:39;;;;;;;7.22;1.50;;;6.70;99.90;;;;;;5087980;28;20036;-71
2022/04/10 07:39:05;;;;;;;7.93;1.10;;;6.70;99.90;;;;;;5080573;28;20043;-70
2022/04/10 07:41:30;;;;;;;5.45;1.42;;;6.70;99.90;;;;;;5082933;28;20236;-70
2022/04/10 07:43:56;;;;;;;8.00;1.40;;;6.80;99.90;;;;;;5086696;28;20074;-70
2022/04/10 07:49:06;;;;;;;5.23;1.03;;;7.00;99.90;;;;;;5068209;28;20114;-70
2022/04/10 07:51:32;;;;;;;5.55;1.52;;;7.10;99.90;;;;;;5085617;28;20048;-69
2022/04/10 07:53:58;;;;;;;11.38;1.45;;;7.10;99.90;;;;;;5083481;28;20214;-69
2022/04/10 07:56:24;;;;;;;8.00;1.45;;;7.20;99.90;;;;;;5082545;28;20044;-70
2022/04/10 07:58:50;;;;;;;7.47;1.63;;;7.30;99.90;;;;;;5085999;28;20688;-70
2022/04/10 08:01:15;;;;;;;8.70;1.70;;;7.50;99.90;;;;;;5085842;28;20079;-69
2022/04/10 08:03:41;;;;;;;9.00;1.65;;;7.60;99.90;;;;;;5085799;28;20039;-70
2022/04/10 08:06:06;;;;;;;6.18;1.55;;;7.60;99.90;;;;;;5087389;28;20380;-70
2022/04/10 08:08:32;;;;;;;8.10;1.40;;;7.60;99.90;;;;;;5085166;28;20048;-69
2022/04/10 08:10:58;;;;;;;7.07;1.50;;;7.80;99.90;;;;;;5085785;28;20051;-69
2022/04/10 08:13:23;;;;;;;9.95;1.92;;;7.80;99.90;;;;;;5085377;28;20035;-69
2022/04/10 08:15:49;;;;;;;6.63;1.50;;;7.90;99.90;;;;;;5089311;28;20074;-69
2022/04/10 08:18:15;;;;;;;6.50;1.40;;;7.90;99.90;;;;;;5079817;28;20042;-69
2022/04/10 08:20:41;;;;;;;8.13;1.45;;;7.80;99.90;;;;;;5079990;28;20059;-69
2022/04/10 08:23:08;;;;;;;8.10;1.70;;;7.70;99.90;;;;;;5075687;28;20125;-69
2022/04/10 08:25:34;;;;;;;7.57;1.95;;;7.70;99.90;;;;;;5076428;28;20803;-68
2022/04/10 08:28:00;;;;;;;8.80;1.67;;;7.70;99.90;;;;;;5083857;28;20435;-69
2022/04/10 08:30:26;;;;;;;7.32;1.83;;;7.90;99.90;;;;;;5077184;28;20643;-69
2022/04/10 08:32:52;;;;;;;10.23;1.70;;;8.00;99.90;;;;;;5076508;28;20131;-70
2022/04/10 08:35:18;;;;;;;8.68;1.60;;;8.20;99.90;;;;;;5079206;28;20102;-71
2022/04/10 08:37:44;;;;;;;8.25;1.50;;;8.00;99.90;;;;;;5078454;28;20089;-71
2022/04/10 08:40:11;;;;;;;8.27;1.30;;;7.60;99.90;;;;;;5080187;28;20040;-71
2022/04/10 08:42:37;;;;;;;7.05;1.33;;;7.40;99.90;;;;;;5080148;28;20036;-71
2022/04/10 08:45:03;;;;;;;8.07;1.48;;;7.30;99.90;;;;;;5082024;28;20135;-71
2022/04/10 08:47:29;;;;;;;7.78;1.63;;;7.40;99.90;;;;;;5077251;28;20048;-71
2022/04/10 08:49:56;;;;;;;6.35;1.90;;;7.50;99.90;;;;;;5081399;28;20059;-71
2022/04/10 08:52:22;;;;;;;6.78;1.48;;;7.70;99.90;;;;;;5080019;28;20076;-70
2022/04/10 08:54:49;;;;;;;9.70;1.70;;;7.80;99.90;;;;;;5078394;28;20060;-70
2022/04/10 08:57:15;;;;;;;7.82;1.70;;;7.90;99.90;;;;;;5081256;28;20053;-70
2022/04/10 08:59:42;;;;;;;6.85;1.38;;;8.00;99.90;;;;;;5089682;28;20384;-70
2022/04/10 09:02:10;;;;;;;6.90;1.30;;;8.10;99.90;;;;;;5087318;28;20048;-70
2022/04/10 09:04:36;;;;;;;9.10;1.90;;;8.20;99.90;;;;;;5086193;28;20048;-69
2022/04/10 09:07:08;;;;;;;7.53;1.65;;;8.50;99.90;;;;;;5085220;28;20684;-69
2022/04/10 09:09:36;;;;;;;7.88;2.00;;;8.70;99.90;;;;;;5086878;28;20066;-69
2022/04/10 09:12:02;;;;;;;6.20;1.40;;;8.70;99.90;;;;;;5083869;28;20036;-69
2022/04/10 09:14:39;;;;;;;5.78;1.40;;;8.60;99.90;;;;;;5086736;28;20044;-69
2022/04/10 09:17:17;;;;;;;9.23;1.55;;;8.40;99.90;;;;;;5080227;28;20122;-69
2022/04/10 09:19:47;;;;;;;11.15;1.70;;;8.50;99.90;;;;;;5085455;28;20074;-69
2022/04/10 09:22:39;;;;;;;9.05;1.58;;;8.70;99.90;;;;;;5085649;28;20073;-70
2022/04/10 09:25:07;;;;;;;5.85;1.20;;;8.80;95.20;;;;;;5075866;28;20102;-69
2022/04/10 09:27:36;;;;;;;5.97;1.55;;;8.90;96.60;;;;;;5072078;28;20056;-70
2022/04/10 09:30:04;;;;;;;9.82;1.52;;;9.00;96.10;;;;;;5081083;28;20051;-69
2022/04/10 09:32:37;;;;;;;10.07;1.88;;;9.00;96.80;;;;;;5081586;28;20545;-68
2022/04/10 09:35:03;;;;;;;10.23;2.53;;;9.00;98.60;;;;;;5083998;28;20048;-69
2022/04/10 09:37:31;;;;;;;7.57;1.65;;;8.90;98.00;;;;;;5078179;28;20038;-69
2022/04/10 09:40:24;;;;;;;7.32;2.03;;;8.90;97.30;;;;;;5085788;28;20123;-69
2022/04/10 09:42:50;;;;;;;9.48;1.38;;;8.90;93.80;;;;;;5080258;28;20119;-70
2022/04/10 09:45:32;;;;;;;7.43;1.52;;;8.90;94.00;;;;;;5082988;28;20158;-69
2022/04/10 09:48:15;;;;;;;11.43;1.92;;;9.00;93.00;;;;;;5080200;28;20048;-69
2022/04/10 09:50:41;;;;;;;6.50;1.27;;;9.20;94.20;;;;;;5079774;28;20047;-69
2022/04/10 09:53:08;;;;;;;5.43;1.23;;;9.40;93.10;;;;;;5083676;28;20052;-69
2022/04/10 09:55:37;;;;;;;6.15;1.33;;;9.60;92.80;;;;;;5079550;28;20472;-68
2022/04/10 09:58:07;;;;;;;5.95;1.20;;;9.80;91.50;;;;;;5080478;28;20246;-68
2022/04/10 10:00:36;;;;;;;6.35;1.20;;;9.70;85.20;;;;;;5080360;28;20484;-68
2022/04/10 10:03:04;;;;;;;6.55;1.50;;;9.50;86.90;;;;;;5076551;28;20052;-69
2022/04/10 10:05:30;;;;;;;6.43;1.65;;;9.30;90.10;;;;;;5082827;28;20518;-68
2022/04/10 10:07:56;;;;;;;6.60;1.50;;;9.30;87.70;;;;;;5080095;28;20113;-68
2022/04/10 10:10:22;;;;;;;4.60;1.17;;;9.50;90.50;;;;;;5083115;28;20114;-69
2022/04/10 10:12:51;;;;;;;6.82;1.13;;;9.70;86.60;;;;;;5072150;28;20051;-68
2022/04/10 10:15:17;;;;;;;8.23;1.52;;;9.90;84.90;;;;;;5092074;28;20449;-68
2022/04/10 10:17:43;;;;;;;7.85;1.45;;;10.00;85.20;;;;;;5087057;28;20284;-69
2022/04/10 10:20:10;;;;;;;5.97;1.20;;;10.00;88.80;;;;;;5083144;28;20040;-71
2022/04/10 10:22:36;;;;;;;6.68;1.40;;;9.80;89.60;;;;;;5082259;28;20040;-70
2022/04/10 10:25:12;;;;;;;4.45;1.27;;;9.80;90.40;;;;;;5085697;28;20032;-70
2022/04/10 10:27:59;;;;;;;8.48;1.50;;;9.80;88.40;;;;;;5081704;28;20040;-70
2022/04/10 10:30:46;;;;;;;7.57;1.30;;;9.90;86.00;;;;;;5076637;28;20488;-69
2022/04/10 10:33:23;;;;;;;7.70;1.80;;;9.90;88.30;;;;;;5076968;28;20059;-68
2022/04/10 10:35:55;;;;;;;5.35;1.10;;;10.00;90.00;;;;;;5082904;28;20058;-68
2022/04/10 10:38:26;;;;;;;6.97;1.35;;;9.80;86.60;;;;;;5086461;28;20046;-68
2022/04/10 10:41:12;;;;;;;6.47;1.30;;;9.80;83.40;;;;;;5083325;28;20097;-69
2022/04/10 10:43:38;;;;;;;6.22;1.25;;;10.00;81.80;;;;;;5070842;28;20216;-69
2022/04/10 10:46:34;;;;;;;6.70;1.65;;;10.20;83.80;;;;;;5078163;28;20190;-68
2022/04/10 10:49:16;;;;;;;5.75;1.27;;;10.50;84.10;;;;;;5085711;28;20418;-67
2022/04/10 10:51:43;;;;;;;3.83;1.10;;;10.10;78.60;;;;;;5084445;28;20068;-67
2022/04/10 10:54:18;;;;;;;5.78;1.08;;;9.80;79.30;;;;;;5087078;28;20056;-69
2022/04/10 10:56:46;;;;;;;6.25;1.00;;;9.80;82.20;;;;;;5083472;28;20120;-69
2022/04/10 10:59:31;;;;;;;4.78;1.25;;;10.00;84.00;;;;;;5084932;28;20170;-68
2022/04/10 11:02:08;;;;;;;5.55;1.60;;;10.10;78.40;;;;;;5081152;28;20048;-70
2022/04/10 11:04:38;;;;;;;5.25;1.35;;;9.90;82.10;;;;;;5087038;28;20074;-69
2022/04/10 11:07:12;;;;;;;6.35;1.33;;;9.70;80.70;;;;;;5087661;28;20190;-70
2022/04/10 11:09:58;;;;;;;5.72;1.45;;;9.90;83.70;;;;;;5089273;28;20349;-69
2022/04/10 11:12:33;;;;;;;6.25;1.00;;;10.10;80.30;;;;;;5084358;28;20063;-69
2022/04/10 11:15:22;;;;;;;5.50;1.10;;;10.20;74.70;;;;;;5081552;28;20049;-70
2022/04/10 11:17:52;;;;;;;6.97;1.20;;;10.50;78.50;;;;;;5082842;28;20055;-70
2022/04/10 11:20:23;;;;;;;6.32;1.25;;;10.50;75.40;;;;;;5083337;28;20097;-69
2022/04/10 11:22:52;;;;;;;6.25;1.17;;;10.50;74.60;;;;;;5077206;28;20214;-70
2022/04/10 11:25:41;;;;;;;6.53;1.17;;;10.80;77.60;;;;;;5078535;28;20712;-71
2022/04/10 11:28:07;;;;;;;6.20;1.20;;;10.90;77.90;;;;;;5070872;28;20082;-69
2022/04/10 11:30:39;;;;;;;7.00;1.13;;;10.60;74.20;;;;;;5073700;28;20453;-69
2022/04/10 11:33:07;;;;;;;3.92;0.90;;;10.60;72.90;;;;;;5077185;28;20460;-71
2022/04/10 11:35:36;;;;;;;5.20;1.48;;;10.60;67.10;;;;;;5056837;28;20436;-70
2022/04/10 11:38:13;;;;;;;6.28;1.42;;;10.60;69.70;;;;;;5081360;28;20219;-69
2022/04/10 11:40:41;;;;;;;4.13;1.10;;;10.80;69.50;;;;;;5072458;28;20086;-70
2022/04/10 11:43:11;;;;;;;4.63;0.90;;;10.90;68.50;;;;;;5077735;28;20044;-69
2022/04/10 11:45:37;;;;;;;6.13;1.40;;;11.10;68.70;;;;;;5075632;28;20464;-69
2022/04/10 11:48:05;;;;;;;8.43;1.70;;;11.00;68.00;;;;;;5085244;28;20044;-69
2022/04/10 11:50:32;;;;;;;5.85;1.15;;;11.00;67.70;;;;;;5081464;28;20127;-69
2022/04/10 11:53:09;;;;;;;7.38;1.10;;;11.30;69.40;;;;;;5084559;28;20369;-70
2022/04/10 11:55:43;;;;;;;6.68;1.38;;;11.30;66.30;;;;;;5073301;28;20037;-70
2022/04/10 11:58:21;;;;;;;5.90;1.83;;;11.10;66.90;;;;;;5072942;28;20122;-70
2022/04/10 12:00:54;;;;;;;6.32;1.73;;;11.10;67.90;;;;;;5077858;28;20048;-70
2022/04/10 12:03:21;;;;;;;4.28;1.10;;;10.90;69.90;;;;;;5078733;28;20457;-69
2022/04/10 12:05:48;;;;;;;5.22;1.20;;;10.90;70.40;;;;;;5087469;28;20119;-69
2022/04/10 12:08:14;;;;;;;6.63;1.10;;;11.00;73.00;;;;;;5086964;28;20070;-69
2022/04/10 12:10:40;;;;;;;5.00;1.10;;;10.90;75.20;;;;;;5085381;28;20440;-69
2022/04/10 12:13:07;;;;;;;4.40;1.10;;;10.80;74.20;;;;;;5082004;28;20460;-71
2022/04/10 12:15:33;;;;;;;3.88;1.00;;;10.60;74.00;;;;;;5075845;28;20055;-71
2022/04/10 12:18:11;;;;;;;3.55;1.23;;;10.70;73.40;;;;;;5085552;28;20102;-71
2022/04/10 12:20:41;;;;;;;5.13;1.30;;;10.60;73.20;;;;;;5084467;28;20463;-70
2022/04/10 12:23:26;;;;;;;5.15;1.20;;;10.60;73.80;;;;;;5082092;28;20480;-70
2022/04/10 12:25:54;;;;;;;4.50;1.23;;;10.70;73.60;;;;;;5081672;28;20294;-70
2022/04/10 12:28:23;;;;;;;5.03;1.13;;;10.80;72.50;;;;;;5084961;28;20064;-70
2022/04/10 12:30:49;;;;;;;4.63;1.30;;;11.10;74.70;;;;;;5084130;28;20899;-70
2022/04/10 12:33:17;;;;;;;6.45;1.15;;;11.20;72.20;;;;;;5080441;28;20074;-70
2022/04/10 12:35:44;;;;;;;6.22;1.15;;;11.30;71.50;;;;;;5088077;28;20154;-70
2022/04/10 12:38:13;;;;;;;5.65;1.20;;;11.30;71.30;;;;;;5070925;28;20441;-70
2022/04/10 12:40:41;;;;;;;6.00;1.20;;;11.30;71.00;;;;;;5082056;28;20055;-70
2022/04/10 12:43:09;;;;;;;3.83;1.10;;;11.30;69.80;;;;;;5078296;28;20070;-70
2022/04/10 12:45:37;;;;;;;3.63;1.15;;;11.40;72.20;;;;;;5073589;28;20036;-70
2022/04/10 12:48:19;;;;;;;6.65;1.63;;;11.40;69.90;;;;;;5079381;28;20047;-70
2022/04/10 12:50:44;;;;;;;5.35;1.20;;;11.40;69.40;;;;;;5081722;28;20495;-70
2022/04/10 12:53:11;;;;;;;4.97;1.00;;;11.40;69.10;;;;;;5081675;28;20063;-70
2022/04/10 12:55:38;;;;;;;5.53;1.20;;;11.40;69.00;;;;;;5080452;28;20112;-69
2022/04/10 12:58:05;;;;;;;5.18;1.20;;;11.40;68.40;;;;;;5086095;28;20044;-70
2022/04/10 13:00:53;;;;;;;4.30;0.98;;;11.40;68.00;;;;;;5082408;28;20052;-70